Time;durP1;ratioP1;P1;durP2;ratioP2;P2;SDS_P1;SDS_P2;PMS_P1;PMS_P2;Temp;Humidity;BMP_temperature;BMP_pressure;BME280_temperature;BME280_humidity;BME280_pressure;Samples;Min_cycle;Max_cycle;Signal;HPM_P1;HPM_P2
2021/05/29 00:02:19;;;;;;;10.55;6.90;;;;;;;18.79;73.04;100055.05;1766962;81;21338;-59
2021/05/29 00:05:25;;;;;;;8.88;7.00;;;;;;;18.76;73.06;100061.89;1768478;81;21184;-59
2021/05/29 00:08:31;;;;;;;9.25;5.70;;;;;;;18.74;73.08;100067.38;1769143;81;21927;-59
2021/05/29 00:11:37;;;;;;;7.12;5.92;;;;;;;18.72;73.04;100055.67;1769018;81;21856;-59
2021/05/29 00:14:46;;;;;;;22.90;6.33;;;;;;;18.71;72.97;100066.47;1769117;81;21374;-60
2021/05/29 00:17:51;;;;;;;11.03;5.85;;;;;;;18.70;72.83;100061.98;1769221;81;21187;-60
2021/05/29 00:20:57;;;;;;;10.60;5.10;;;;;;;18.71;72.68;100054.81;1769125;80;21192;-59
2021/05/29 00:24:03;;;;;;;7.05;5.50;;;;;;;18.71;72.50;100050.66;1769140;80;21737;-60
2021/05/29 00:27:09;;;;;;;6.08;5.03;;;;;;;18.72;72.28;100049.59;1768968;81;21204;-59
2021/05/29 00:30:16;;;;;;;8.05;5.28;;;;;;;18.74;72.19;100048.79;1769233;81;21405;-59
2021/05/29 00:33:22;;;;;;;10.72;5.47;;;;;;;18.79;71.99;100048.93;1769566;81;21370;-61
2021/05/29 00:36:27;;;;;;;7.53;5.33;;;;;;;18.83;72.08;100049.31;1763769;81;21449;-60
2021/05/29 00:39:34;;;;;;;8.45;5.30;;;;;;;18.90;72.24;100050.06;1764187;81;21243;-61
2021/05/29 00:42:40;;;;;;;8.75;5.72;;;;;;;18.95;72.17;100041.84;1764141;81;21234;-61
2021/05/29 00:45:46;;;;;;;10.25;5.87;;;;;;;19.03;72.20;100045.66;1764302;81;21250;-61
2021/05/29 00:48:51;;;;;;;11.60;6.12;;;;;;;19.08;72.14;100043.87;1764250;81;21211;-60
2021/05/29 00:51:58;;;;;;;13.90;6.40;;;;;;;19.12;71.93;100031.20;1764271;81;21200;-61
2021/05/29 00:55:04;;;;;;;12.23;5.85;;;;;;;19.14;71.86;100026.27;1764222;81;21239;-61
2021/05/29 00:58:10;;;;;;;9.13;5.87;;;;;;;19.16;71.78;100026.02;1764184;80;21209;-61
2021/05/29 01:01:16;;;;;;;7.80;6.10;;;;;;;19.17;71.95;100024.96;1763975;81;21343;-61
2021/05/29 01:04:22;;;;;;;14.60;6.33;;;;;;;19.18;72.02;100024.72;1764123;81;21602;-60
2021/05/29 01:07:28;;;;;;;9.38;6.22;;;;;;;19.18;71.92;100020.55;1764272;81;21176;-61
2021/05/29 01:10:35;;;;;;;11.20;6.25;;;;;;;19.18;71.92;100023.33;1764200;81;21243;-61
2021/05/29 01:13:42;;;;;;;10.05;6.50;;;;;;;19.16;71.91;100013.53;1764226;81;21203;-60
2021/05/29 01:16:49;;;;;;;10.82;6.28;;;;;;;19.11;71.81;100008.72;1760791;81;21840;-61
2021/05/29 01:19:54;;;;;;;11.20;6.95;;;;;;;18.97;71.86;100004.48;1766192;81;21287;-60
2021/05/29 01:23:01;;;;;;;10.38;6.50;;;;;;;18.88;72.14;99999.52;1794805;79;21239;-60
2021/05/29 01:26:05;;;;;;;11.33;6.55;;;;;;;18.73;72.45;99994.42;1803361;79;21208;-61
2021/05/29 01:29:11;;;;;;;7.20;6.00;;;;;;;18.67;72.90;99991.75;1803228;79;21176;-61
2021/05/29 01:32:20;;;;;;;10.70;6.83;;;;;;;18.66;73.20;99981.75;1803211;79;21873;-61
2021/05/29 01:35:24;;;;;;;7.87;6.08;;;;;;;18.69;73.48;99980.74;1803353;79;21880;-60
2021/05/29 01:38:29;;;;;;;9.83;6.00;;;;;;;18.73;73.59;99979.70;1787789;80;21330;-61
2021/05/29 01:41:34;;;;;;;13.62;6.53;;;;;;;18.71;73.57;99981.33;1787707;80;21934;-60
2021/05/29 01:44:40;;;;;;;9.40;6.47;;;;;;;18.70;73.58;99975.48;1787638;80;21394;-61
2021/05/29 01:47:50;;;;;;;9.83;6.20;;;;;;;18.72;73.82;99969.70;1787944;80;21388;-61
2021/05/29 01:50:57;;;;;;;8.25;6.28;;;;;;;18.77;73.95;99977.63;1788032;80;21224;-61
2021/05/29 01:54:03;;;;;;;10.53;6.40;;;;;;;18.81;73.82;99979.36;1787983;80;21322;-59
2021/05/29 01:57:09;;;;;;;7.25;5.85;;;;;;;18.84;73.75;99976.95;1787979;80;21334;-59
2021/05/29 02:00:14;;;;;;;9.78;6.65;;;;;;;18.88;73.51;99975.41;1787979;80;21426;-59
2021/05/29 02:03:20;;;;;;;10.65;6.97;;;;;;;18.92;73.24;99974.36;1787979;80;21374;-60
2021/05/29 02:06:25;;;;;;;13.18;6.47;;;;;;;18.94;73.07;99971.67;1788099;80;21353;-61
2021/05/29 02:09:32;;;;;;;9.55;7.00;;;;;;;18.97;72.91;99965.64;1787973;80;21350;-62
2021/05/29 02:12:46;;;;;;;12.25;6.40;;;;;;;18.99;72.74;99964.87;1787946;80;21338;-62
2021/05/29 02:15:52;;;;;;;18.32;6.65;;;;;;;19.02;72.61;99958.83;1774504;80;21406;-61
2021/05/29 02:19:00;;;;;;;8.63;6.20;;;;;;;19.03;72.52;99948.02;1788041;79;21562;-60
2021/05/29 02:22:05;;;;;;;8.68;6.15;;;;;;;19.03;72.35;99950.80;1773156;80;21334;-60
2021/05/29 02:25:12;;;;;;;12.33;6.42;;;;;;;19.03;72.06;99945.25;1787896;80;21361;-60
2021/05/29 02:28:17;;;;;;;12.55;6.22;;;;;;;19.03;72.09;99943.01;1787892;80;21573;-59
2021/05/29 02:31:23;;;;;;;11.12;6.45;;;;;;;19.02;72.20;99939.41;1787497;80;21377;-60
2021/05/29 02:34:27;;;;;;;12.58;6.30;;;;;;;19.05;72.50;99948.64;1787971;80;21365;-60
2021/05/29 02:37:32;;;;;;;11.18;5.80;;;;;;;19.06;72.72;99956.39;1788452;79;21366;-60
2021/05/29 02:40:37;;;;;;;9.23;5.87;;;;;;;19.05;72.82;99960.27;1804272;79;21351;-60
2021/05/29 02:43:44;;;;;;;9.55;6.70;;;;;;;19.02;72.61;99976.86;1804262;79;21243;-59
2021/05/29 02:46:50;;;;;;;13.80;6.67;;;;;;;19.01;72.48;99986.25;1804094;79;21365;-61
2021/05/29 02:49:57;;;;;;;10.78;7.10;;;;;;;18.98;72.50;99992.28;1804038;79;21731;-60
2021/05/29 02:53:03;;;;;;;23.92;10.75;;;;;;;19.01;72.95;100012.61;1804072;79;21200;-61
2021/05/29 02:56:12;;;;;;;24.55;13.72;;;;;;;19.01;73.27;100033.42;1804202;79;21417;-59
2021/05/29 02:59:18;;;;;;;35.75;18.70;;;;;;;18.98;73.54;100033.08;1804105;79;21350;-59
2021/05/29 03:02:24;;;;;;;21.75;11.75;;;;;;;18.91;73.72;100026.78;1804095;79;21761;-60
2021/05/29 03:05:35;;;;;;;12.95;8.30;;;;;;;18.85;73.89;100024.40;1803711;79;21362;-59
2021/05/29 03:08:41;;;;;;;12.53;7.55;;;;;;;18.84;74.08;100025.50;1803953;79;21433;-62
2021/05/29 03:11:48;;;;;;;8.18;6.15;;;;;;;18.83;74.27;100018.27;1804015;79;21232;-61
2021/05/29 03:14:55;;;;;;;9.35;6.40;;;;;;;18.85;74.34;100016.64;1804085;79;21204;-61
2021/05/29 03:18:03;;;;;;;11.15;5.70;;;;;;;18.90;74.29;100019.55;1804135;79;21200;-61
2021/05/29 03:21:10;;;;;;;7.33;6.00;;;;;;;18.95;74.25;100026.06;1804137;79;21409;-62
2021/05/29 03:24:16;;;;;;;7.67;6.00;;;;;;;18.98;74.21;100028.35;1804386;79;21362;-60
2021/05/29 03:27:21;;;;;;;11.55;6.25;;;;;;;19.02;74.24;100030.97;1804162;79;21232;-61
2021/05/29 03:30:31;;;;;;;8.65;5.80;;;;;;;19.04;74.39;100037.09;1804271;79;21358;-61
2021/05/29 03:33:38;;;;;;;7.67;5.53;;;;;;;19.03;74.55;100030.41;1804133;79;21339;-62
2021/05/29 03:36:44;;;;;;;6.10;5.47;;;;;;;19.02;74.62;100028.19;1803999;79;21195;-59
2021/05/29 03:39:51;;;;;;;6.75;5.42;;;;;;;19.04;74.70;100019.63;1794177;79;21319;-60
2021/05/29 03:42:57;;;;;;;7.60;5.90;;;;;;;19.11;74.75;100026.75;1795855;80;21317;-60
2021/05/29 03:46:04;;;;;;;9.43;6.55;;;;;;;19.22;74.83;100028.69;1795774;80;21590;-59
2021/05/29 03:49:11;;;;;;;7.80;6.40;;;;;;;19.30;74.60;100020.04;1795731;80;21331;-60
2021/05/29 03:52:23;;;;;;;6.20;5.17;;;;;;;19.40;74.44;100013.03;1795840;80;21330;-59
2021/05/29 03:55:32;;;;;;;7.58;5.35;;;;;;;19.49;73.85;100012.98;1795790;80;21379;-59
2021/05/29 03:58:39;;;;;;;6.50;5.22;;;;;;;19.59;73.53;100007.64;1795681;80;21837;-61
2021/05/29 04:01:48;;;;;;;6.22;5.15;;;;;;;19.72;73.32;100011.55;1795808;80;21315;-60
2021/05/29 04:04:54;;;;;;;8.63;4.60;;;;;;;19.83;73.02;100004.60;1795886;80;21347;-60
2021/05/29 04:08:01;;;;;;;6.40;4.15;;;;;;;19.91;72.51;100008.92;1795719;80;21805;-61
2021/05/29 04:11:08;;;;;;;5.05;4.42;;;;;;;19.99;71.75;99994.65;1795846;80;21220;-60
2021/05/29 04:14:18;;;;;;;5.17;3.90;;;;;;;20.04;71.18;99990.59;1795934;80;21193;-61
2021/05/29 04:17:24;;;;;;;6.50;4.28;;;;;;;20.11;71.05;99996.83;1795825;80;21204;-60
2021/05/29 04:20:32;;;;;;;7.05;4.35;;;;;;;20.18;70.46;99994.80;1796048;80;21394;-59
2021/05/29 04:23:37;;;;;;;7.40;4.47;;;;;;;20.26;70.07;99991.63;1796074;80;21240;-60
2021/05/29 04:26:43;;;;;;;5.25;3.50;;;;;;;20.35;69.63;99991.52;1795997;80;21300;-61
2021/05/29 04:29:49;;;;;;;5.53;4.20;;;;;;;20.46;69.16;99994.25;1795983;80;21477;-60
2021/05/29 04:32:55;;;;;;;8.03;4.53;;;;;;;20.54;68.89;99984.66;1796040;80;21351;-61
2021/05/29 04:36:03;;;;;;;7.05;3.30;;;;;;;20.62;68.66;99978.69;1795991;80;21307;-60
2021/05/29 04:39:09;;;;;;;6.95;3.47;;;;;;;20.61;68.28;99972.84;1795917;80;21338;-59
2021/05/29 04:42:16;;;;;;;5.40;3.52;;;;;;;20.59;68.04;99970.84;1796068;80;21220;-61
2021/05/29 04:45:23;;;;;;;7.05;3.90;;;;;;;20.56;67.79;99956.05;1795951;80;21343;-59
2021/05/29 04:48:33;;;;;;;7.40;4.10;;;;;;;20.51;67.87;99960.12;1795712;80;21334;-58
2021/05/29 04:51:39;;;;;;;6.45;3.95;;;;;;;20.44;67.85;99951.08;1795682;80;21633;-58
2021/05/29 04:54:44;;;;;;;6.00;4.30;;;;;;;20.39;67.90;99948.23;1772279;80;21205;-60
2021/05/29 04:57:51;;;;;;;5.65;3.83;;;;;;;20.40;68.56;99951.30;1759042;81;21359;-62
2021/05/29 05:01:01;;;;;;;6.92;4.17;;;;;;;20.45;68.73;99955.57;1758741;81;21224;-60
2021/05/29 05:04:07;;;;;;;12.78;4.45;;;;;;;20.50;68.76;99966.80;1758828;81;21332;-61
2021/05/29 05:07:14;;;;;;;6.87;3.55;;;;;;;20.50;68.31;99973.75;1759140;81;21319;-61
2021/05/29 05:10:20;;;;;;;8.93;4.00;;;;;;;20.49;68.34;99985.41;1759162;81;21201;-60
2021/05/29 05:13:26;;;;;;;6.30;3.83;;;;;;;20.51;68.74;99997.14;1758785;81;21311;-60
2021/05/29 05:16:32;;;;;;;7.78;3.87;;;;;;;20.54;68.66;100007.76;1758981;81;21201;-61
2021/05/29 05:19:37;;;;;;;9.15;4.40;;;;;;;20.56;68.90;100021.41;1758664;81;21359;-60
2021/05/29 05:22:47;;;;;;;8.25;4.78;;;;;;;20.54;69.56;100023.05;1758630;81;21188;-60
2021/05/29 05:25:53;;;;;;;9.05;5.47;;;;;;;20.49;69.90;100030.44;1759133;81;21343;-60
2021/05/29 05:29:01;;;;;;;6.72;4.80;;;;;;;20.41;70.40;100021.95;1758617;81;21249;-60
2021/05/29 05:32:06;;;;;;;8.83;5.22;;;;;;;20.33;70.86;100011.77;1758626;81;21209;-59
2021/05/29 05:35:15;;;;;;;15.05;8.68;;;;;;;20.26;71.61;99999.43;1758903;81;21339;-61
2021/05/29 05:38:23;;;;;;;10.25;5.75;;;;;;;20.23;72.14;99983.22;1759316;81;21753;-59
2021/05/29 05:41:29;;;;;;;7.50;4.75;;;;;;;20.22;72.78;99963.47;1761272;79;21357;-58
2021/05/29 05:44:40;;;;;;;7.42;5.10;;;;;;;20.19;72.68;99936.71;1752339;82;21181;-58
2021/05/29 05:47:47;;;;;;;8.55;5.08;;;;;;;20.03;73.02;99929.13;1751836;82;21197;-60
2021/05/29 05:50:58;;;;;;;9.30;5.15;;;;;;;20.01;73.52;99937.72;1751647;82;21991;-60
2021/05/29 05:54:03;;;;;;;6.70;5.03;;;;;;;20.14;74.22;99922.71;1752030;82;21908;-58
2021/05/29 05:57:13;;;;;;;6.40;5.20;;;;;;;20.15;73.51;99898.02;1752102;82;21351;-60
2021/05/29 06:00:23;;;;;;;14.35;7.65;;;;;;;20.02;73.60;99908.01;1751985;82;21451;-60
2021/05/29 06:03:29;;;;;;;9.88;6.60;;;;;;;20.04;73.93;99905.83;1752279;82;21367;-59
2021/05/29 06:06:36;;;;;;;10.40;6.70;;;;;;;20.14;73.87;99915.77;1752515;82;21383;-61
2021/05/29 06:09:42;;;;;;;8.25;5.90;;;;;;;20.20;74.17;99914.80;1752224;82;21669;-58
2021/05/29 06:12:50;;;;;;;8.38;4.65;;;;;;;20.27;74.13;99908.52;1733304;83;21330;-58
2021/05/29 06:19:24;;;;;;;7.95;4.83;;;;;;;20.23;72.78;99897.61;1733669;83;21295;-59
2021/05/29 06:22:29;;;;;;;6.60;4.33;;;;;;;20.12;72.09;99890.14;1733410;83;21845;-58
2021/05/29 06:25:40;;;;;;;8.40;4.50;;;;;;;19.99;71.69;99886.28;1733454;83;21244;-58
2021/05/29 06:28:46;;;;;;;7.67;4.40;;;;;;;19.93;71.47;99884.50;1733430;83;21374;-58
2021/05/29 06:31:54;;;;;;;10.68;5.33;;;;;;;19.87;71.04;99878.55;1733222;83;21209;-61
2021/05/29 06:34:58;;;;;;;6.28;4.72;;;;;;;19.78;70.20;99875.31;1748861;81;21405;-59
2021/05/29 06:38:05;;;;;;;5.33;4.72;;;;;;;19.83;70.77;99886.53;1760682;81;21338;-58
2021/05/29 06:41:10;;;;;;;5.90;5.00;;;;;;;19.91;71.42;99891.70;1763043;81;21748;-58
2021/05/29 06:44:16;;;;;;;9.05;5.55;;;;;;;19.93;71.33;99887.28;1768400;81;21474;-58
2021/05/29 06:47:21;;;;;;;10.28;5.33;;;;;;;19.95;71.77;99887.31;1769563;81;21331;-59
2021/05/29 06:50:28;;;;;;;7.00;5.53;;;;;;;19.96;71.51;99889.55;1769438;81;21347;-59
2021/05/29 06:53:42;;;;;;;5.87;5.15;;;;;;;19.94;71.58;99887.56;1769046;81;21193;-58
2021/05/29 07:00:06;;;;;;;8.18;5.55;;;;;;;20.08;71.52;99895.35;1737334;82;21259;-57
2021/05/29 07:03:12;;;;;;;8.85;5.85;;;;;;;20.18;71.99;99896.98;1769937;80;21346;-59
2021/05/29 07:06:19;;;;;;;7.53;5.58;;;;;;;20.34;71.83;99914.77;1769609;81;21409;-58
2021/05/29 07:09:24;;;;;;;9.20;6.08;;;;;;;20.45;71.16;99908.30;1733370;81;21393;-60
2021/05/29 07:12:31;;;;;;;6.85;5.35;;;;;;;20.57;71.05;99909.05;1769077;81;21240;-60
2021/05/29 07:15:39;;;;;;;6.10;5.50;;;;;;;20.67;70.76;99916.19;1769318;81;21366;-59
2021/05/29 07:18:46;;;;;;;9.58;5.20;;;;;;;20.77;69.76;99919.97;1769015;81;21374;-59
2021/05/29 07:21:53;;;;;;;8.25;5.00;;;;;;;20.86;69.24;99916.77;1769334;81;21327;-59
2021/05/29 07:24:59;;;;;;;7.87;5.67;;;;;;;20.94;68.64;99914.95;1769456;80;21212;-58
2021/05/29 07:28:05;;;;;;;10.45;5.12;;;;;;;21.00;68.45;99914.81;1768972;81;21231;-59
2021/05/29 07:31:11;;;;;;;6.92;4.60;;;;;;;21.10;66.94;99924.72;1768984;81;21196;-58
2021/05/29 07:34:17;;;;;;;8.95;4.50;;;;;;;21.17;66.50;99918.41;1769090;81;21786;-59
2021/05/29 07:37:22;;;;;;;5.60;4.45;;;;;;;21.32;66.01;99921.97;1769152;81;21173;-59
2021/05/29 07:40:28;;;;;;;9.78;4.05;;;;;;;21.43;65.24;99924.65;1753680;81;21242;-60
2021/05/29 07:43:34;;;;;;;7.15;4.20;;;;;;;21.58;65.10;99928.20;1714520;79;21240;-60
2021/05/29 07:46:39;;;;;;;7.58;4.03;;;;;;;21.76;65.35;99928.75;1738004;82;21347;-58
2021/05/29 07:49:52;;;;;;;5.72;3.40;;;;;;;21.88;64.30;99929.44;1737329;82;21783;-65
2021/05/29 07:52:55;;;;;;;5.55;3.27;;;;;;;21.87;62.76;99931.95;1737640;82;21362;-60
2021/05/29 07:56:02;;;;;;;5.80;4.05;;;;;;;21.88;62.94;99934.20;1736858;82;21237;-58
2021/05/29 07:59:15;;;;;;;7.67;3.60;;;;;;;21.99;63.14;99934.61;1737698;82;21339;-58
2021/05/29 08:02:19;;;;;;;7.83;3.55;;;;;;;22.05;62.87;99936.34;1756820;80;21398;-58
2021/05/29 08:05:26;;;;;;;6.65;4.05;;;;;;;21.96;62.25;99930.95;1733366;83;21717;-58
2021/05/29 08:08:33;;;;;;;6.83;3.65;;;;;;;21.94;63.63;99935.94;1732979;83;21235;-60
2021/05/29 08:11:38;;;;;;;4.60;4.08;;;;;;;21.98;63.56;99937.94;1733281;83;21227;-60
2021/05/29 08:14:44;;;;;;;4.90;3.45;;;;;;;22.04;64.26;99936.06;1733459;82;21200;-60
2021/05/29 08:17:53;;;;;;;5.92;3.40;;;;;;;22.18;63.13;99929.80;1733485;83;21720;-61
2021/05/29 08:20:59;;;;;;;7.40;3.42;;;;;;;22.29;61.83;99929.91;1733725;83;21231;-58
2021/05/29 08:24:05;;;;;;;7.17;3.27;;;;;;;22.46;61.92;99937.61;1733949;83;21220;-60
2021/05/29 08:27:11;;;;;;;5.05;3.15;;;;;;;22.61;61.23;99933.63;1733955;83;21214;-60
2021/05/29 08:30:18;;;;;;;6.58;3.42;;;;;;;22.81;60.69;99940.77;1733913;83;21807;-59
2021/05/29 08:33:25;;;;;;;4.12;2.98;;;;;;;23.00;58.74;99929.48;1733812;83;21256;-61
2021/05/29 08:36:30;;;;;;;3.90;2.83;;;;;;;23.19;59.21;99920.97;1756347;80;21259;-61
2021/05/29 08:39:35;;;;;;;10.28;3.33;;;;;;;23.46;59.37;99928.17;1763383;81;21260;-60
2021/05/29 08:42:41;;;;;;;3.58;2.83;;;;;;;23.79;58.93;99919.09;1763537;81;21323;-58
2021/05/29 08:45:50;;;;;;;4.75;3.02;;;;;;;24.02;56.25;99927.91;1736869;80;21228;-60
2021/05/29 08:48:57;;;;;;;5.00;3.05;;;;;;;24.10;56.09;99923.16;1763269;81;21474;-59
2021/05/29 08:52:03;;;;;;;4.08;3.15;;;;;;;24.18;55.44;99921.80;1763396;81;21374;-58
2021/05/29 08:55:12;;;;;;;6.83;3.42;;;;;;;24.19;54.06;99916.48;1763438;80;21224;-58
2021/05/29 08:58:18;;;;;;;3.92;2.47;;;;;;;24.39;53.94;99917.36;1763519;81;21224;-57
2021/05/29 09:01:24;;;;;;;10.30;2.92;;;;;;;24.59;54.77;99917.96;1759528;81;21236;-57
2021/05/29 09:04:30;;;;;;;8.70;2.90;;;;;;;24.80;53.07;99908.50;1763753;81;21234;-57
2021/05/29 09:07:36;;;;;;;6.62;3.22;;;;;;;25.06;53.74;99919.95;1763925;81;21204;-59
2021/05/29 09:10:47;;;;;;;8.30;2.70;;;;;;;25.32;53.00;99911.80;1763814;80;21224;-57
2021/05/29 09:13:56;;;;;;;5.08;3.10;;;;;;;25.50;52.77;99913.20;1733970;82;21188;-58
2021/05/29 09:17:25;;;;;;;4.58;2.50;;;;;;;25.56;52.05;99916.25;1733740;83;21283;-58
2021/05/29 09:20:35;;;;;;;4.85;2.55;;;;;;;25.51;51.74;99912.06;1760214;81;21204;-56
2021/05/29 09:24:00;;;;;;;6.40;2.65;;;;;;;25.40;51.62;99914.61;1764231;81;21203;-57
2021/05/29 09:27:07;;;;;;;3.72;2.40;;;;;;;25.28;51.27;99916.83;1764179;81;21308;-57
2021/05/29 09:30:15;;;;;;;3.52;2.60;;;;;;;25.03;52.27;99921.92;1747989;81;21315;-57
2021/05/29 09:33:34;;;;;;;11.60;3.80;;;;;;;24.91;53.24;99920.80;1763934;81;21741;-59
2021/05/29 09:36:38;;;;;;;5.67;3.05;;;;;;;24.79;53.88;99917.45;1764010;81;21231;-60
2021/05/29 09:39:44;;;;;;;8.10;3.20;;;;;;;24.67;54.66;99916.05;1763314;80;21693;-57
2021/05/29 09:42:51;;;;;;;22.15;4.03;;;;;;;24.62;54.99;99917.41;1763855;81;21252;-57
2021/05/29 09:46:11;;;;;;;6.80;3.15;;;;;;;24.58;55.96;99919.91;1761484;81;21220;-59
2021/05/29 09:49:20;;;;;;;4.90;3.30;;;;;;;24.54;57.91;99921.60;1764003;81;21430;-58
2021/05/29 09:52:48;;;;;;;5.55;3.33;;;;;;;24.46;59.06;99919.34;1763797;81;21347;-57
2021/05/29 09:55:54;;;;;;;7.53;3.75;;;;;;;24.39;59.34;99917.36;1763493;81;21409;-56
2021/05/29 09:59:01;;;;;;;9.88;4.60;;;;;;;24.31;60.29;99927.70;1763937;81;21339;-56
2021/05/29 10:02:09;;;;;;;16.27;5.03;;;;;;;24.22;60.82;99915.38;1763705;81;21366;-57
2021/05/29 10:05:38;;;;;;;4.17;3.15;;;;;;;24.12;62.96;99908.34;1763859;81;21338;-56
2021/05/29 10:08:46;;;;;;;7.87;3.90;;;;;;;23.98;62.85;99907.19;1763506;81;21879;-56
2021/05/29 10:11:51;;;;;;;7.40;4.00;;;;;;;23.87;64.13;99898.99;1763793;81;21887;-56
2021/05/29 10:14:56;;;;;;;5.97;4.25;;;;;;;23.89;64.96;99894.83;1763776;81;21785;-56
2021/05/29 10:18:06;;;;;;;6.35;4.30;;;;;;;24.02;66.08;99888.76;1763930;81;21374;-57
2021/05/29 10:21:12;;;;;;;6.15;3.92;;;;;;;24.15;65.83;99889.61;1763844;81;21279;-58
2021/05/29 10:24:21;;;;;;;4.65;3.60;;;;;;;24.30;65.34;99893.84;1763722;81;21464;-57
2021/05/29 10:27:30;;;;;;;8.68;4.35;;;;;;;24.47;65.00;99884.63;1763693;81;21405;-56
2021/05/29 10:30:36;;;;;;;4.97;3.70;;;;;;;24.65;64.08;99874.30;1763378;81;21347;-57
2021/05/29 10:33:51;;;;;;;5.42;3.22;;;;;;;24.95;64.33;99874.31;1763742;81;21355;-59
2021/05/29 10:37:00;;;;;;;4.58;3.40;;;;;;;25.35;62.52;99876.78;1764021;81;21173;-59
2021/05/29 10:40:34;;;;;;;5.53;3.25;;;;;;;25.86;61.55;99866.47;1763820;81;21236;-58
2021/05/29 10:43:38;;;;;;;4.63;2.80;;;;;;;26.11;58.69;99869.20;1762749;81;21347;-58
2021/05/29 10:46:44;;;;;;;6.35;2.67;;;;;;;26.18;57.86;99861.83;1761172;80;21311;-59
2021/05/29 10:50:00;;;;;;;3.05;2.50;;;;;;;26.17;56.57;99857.36;1757028;81;21325;-58
2021/05/29 10:53:04;;;;;;;5.12;2.33;;;;;;;26.17;54.81;99847.54;1756815;80;21200;-58
2021/05/29 10:56:30;;;;;;;4.45;2.55;;;;;;;26.18;53.27;99843.59;1736677;82;21224;-59
2021/05/29 10:59:44;;;;;;;7.45;3.42;;;;;;;26.26;53.22;99834.56;1751445;80;21330;-58
2021/05/29 11:02:49;;;;;;;3.35;2.65;;;;;;;26.37;53.06;99837.00;1763076;80;21393;-58
2021/05/29 11:05:59;;;;;;;3.98;2.62;;;;;;;26.42;52.78;99828.55;1767637;81;21760;-58
2021/05/29 11:09:05;;;;;;;4.92;3.02;;;;;;;26.48;52.52;99834.98;1764327;80;21188;-58
2021/05/29 11:12:10;;;;;;;4.47;2.52;;;;;;;26.56;52.43;99836.31;1763082;81;21200;-57
2021/05/29 11:15:16;;;;;;;3.80;2.55;;;;;;;26.57;52.28;99839.38;1752151;81;21222;-57
2021/05/29 11:18:21;;;;;;;2.75;1.92;;;;;;;26.61;51.91;99834.28;1764057;80;21168;-58
2021/05/29 11:21:27;;;;;;;5.15;2.58;;;;;;;26.67;50.09;99841.56;1783981;80;21487;-59
2021/05/29 11:24:56;;;;;;;6.47;2.37;;;;;;;26.63;49.96;99845.22;1769429;80;21845;-59
2021/05/29 11:27:58;;;;;;;4.35;2.52;;;;;;;26.55;49.61;99842.48;1759449;81;21398;-59
2021/05/29 11:31:07;;;;;;;5.65;2.17;;;;;;;26.46;49.67;99838.64;1750784;81;21406;-59
2021/05/29 11:34:13;;;;;;;4.60;2.15;;;;;;;26.34;50.06;99838.16;1767443;80;21220;-59
2021/05/29 11:37:21;;;;;;;5.65;2.60;;;;;;;26.31;50.37;99834.53;1784289;80;21701;-59
2021/05/29 11:40:27;;;;;;;3.35;2.22;;;;;;;26.29;50.32;99840.44;1784680;80;21280;-60
2021/05/29 11:43:48;;;;;;;5.12;2.08;;;;;;;26.37;50.08;99841.22;1784574;80;21189;-60
2021/05/29 11:46:54;;;;;;;3.10;2.33;;;;;;;26.58;49.64;99839.09;1784629;80;21326;-59
2021/05/29 11:50:00;;;;;;;4.25;2.67;;;;;;;26.70;49.09;99841.00;1783440;80;21738;-59
2021/05/29 11:53:06;;;;;;;6.35;3.47;;;;;;;26.76;48.87;99834.75;1787564;80;21200;-60
2021/05/29 11:56:11;;;;;;;5.60;2.70;;;;;;;26.84;48.65;99825.69;1773726;80;21729;-58
2021/05/29 11:59:16;;;;;;;3.83;2.20;;;;;;;26.90;48.37;99832.38;1773232;81;21192;-59
2021/05/29 12:02:21;;;;;;;4.45;2.17;;;;;;;26.98;47.41;99819.09;1774096;81;21192;-59
2021/05/29 12:05:27;;;;;;;4.70;3.17;;;;;;;27.06;47.08;99822.66;1774406;81;21219;-58
2021/05/29 12:08:32;;;;;;;6.30;2.55;;;;;;;27.04;47.33;99812.83;1766882;81;21215;-59
2021/05/29 12:11:39;;;;;;;5.22;2.35;;;;;;;26.89;47.14;99811.05;1753836;81;21211;-60
2021/05/29 12:14:49;;;;;;;3.87;2.25;;;;;;;26.78;47.63;99801.04;1755998;81;21218;-59
2021/05/29 12:17:54;;;;;;;4.10;2.00;;;;;;;26.68;47.52;99799.72;1756090;81;21306;-61
2021/05/29 12:21:07;;;;;;;4.97;2.52;;;;;;;26.72;48.05;99806.41;1755737;81;21255;-60
2021/05/29 12:24:12;;;;;;;5.90;2.72;;;;;;;26.92;47.92;99800.61;1743876;82;21201;-60
2021/05/29 12:27:20;;;;;;;5.33;2.15;;;;;;;27.06;48.42;99805.80;1743667;82;21515;-64
2021/05/29 12:30:26;;;;;;;3.67;2.05;;;;;;;27.12;47.09;99801.78;1743820;82;21355;-59
2021/05/29 12:33:33;;;;;;;3.50;2.27;;;;;;;27.18;47.00;99801.99;1746265;80;21231;-61
2021/05/29 12:36:38;;;;;;;2.47;2.00;;;;;;;27.23;46.13;99796.32;1774486;81;21343;-59
2021/05/29 12:40:18;;;;;;;4.42;2.60;;;;;;;27.40;46.05;99794.48;1774436;81;21212;-60
2021/05/29 12:43:25;;;;;;;2.55;1.77;;;;;;;27.48;45.20;99807.28;1774108;80;21192;-61
2021/05/29 12:46:33;;;;;;;3.65;2.17;;;;;;;27.44;45.17;99798.34;1774934;81;21400;-59
2021/05/29 12:49:39;;;;;;;3.98;2.20;;;;;;;27.44;45.16;99804.82;1770054;81;21277;-61
2021/05/29 12:52:44;;;;;;;3.35;1.90;;;;;;;27.26;45.23;99804.19;1764070;81;21354;-59
2021/05/29 12:55:54;;;;;;;2.62;1.70;;;;;;;27.04;45.47;99815.08;1752267;80;21441;-59
2021/05/29 12:59:11;;;;;;;2.87;2.05;;;;;;;26.80;46.05;99814.79;1736258;81;21192;-59
2021/05/29 13:02:34;;;;;;;4.08;2.00;;;;;;;26.58;46.73;99811.01;1735236;81;21934;-58
2021/05/29 13:09:07;;;;;;;3.77;2.02;;;;;;;26.63;46.75;99808.71;1737139;81;21339;-60
2021/05/29 13:12:24;;;;;;;2.90;2.05;;;;;;;26.49;47.10;99815.59;1737795;82;21379;-58
2021/05/29 13:15:32;;;;;;;4.62;2.08;;;;;;;26.46;47.15;99804.95;1737872;82;21367;-62
2021/05/29 13:18:38;;;;;;;4.17;2.22;;;;;;;26.55;46.88;99813.56;1737777;82;21325;-61
2021/05/29 13:22:07;;;;;;;6.55;2.37;;;;;;;26.62;47.24;99800.88;1738584;81;21330;-61
2021/05/29 13:25:21;;;;;;;2.85;2.17;;;;;;;26.58;46.65;99821.39;1763283;81;21390;-61
2021/05/29 13:28:26;;;;;;;2.90;2.15;;;;;;;26.28;47.10;99807.05;1763170;81;21382;-60
2021/05/29 13:31:35;;;;;;;4.33;2.30;;;;;;;26.32;47.62;99815.17;1763332;81;21785;-61
2021/05/29 13:34:42;;;;;;;2.87;2.00;;;;;;;26.54;46.91;99814.70;1763553;81;21366;-59
2021/05/29 13:37:48;;;;;;;3.45;2.17;;;;;;;26.67;46.13;99815.47;1763608;81;21342;-61
2021/05/29 13:40:53;;;;;;;5.33;2.22;;;;;;;26.63;46.68;99798.88;1764130;81;21389;-61
2021/05/29 13:43:59;;;;;;;3.55;2.55;;;;;;;26.74;47.09;99797.69;1764138;81;21205;-59
2021/05/29 13:47:05;;;;;;;3.72;2.52;;;;;;;26.85;47.20;99797.86;1763968;81;21331;-59
2021/05/29 13:50:12;;;;;;;6.75;2.60;;;;;;;26.73;47.88;99806.70;1763729;81;21334;-61
2021/05/29 13:53:17;;;;;;;3.05;2.60;;;;;;;26.68;47.73;99795.52;1763867;81;21900;-60
2021/05/29 13:56:23;;;;;;;6.00;2.58;;;;;;;26.60;48.03;99796.11;1763933;81;21386;-60
2021/05/29 13:59:30;;;;;;;4.10;2.55;;;;;;;26.60;47.73;99810.16;1763858;81;21272;-61
2021/05/29 14:02:36;;;;;;;3.27;2.50;;;;;;;26.63;48.06;99808.16;1764305;81;21334;-60
2021/05/29 14:05:44;;;;;;;6.70;2.70;;;;;;;26.61;47.35;99814.62;1763498;81;21899;-61
2021/05/29 14:08:50;;;;;;;3.35;2.45;;;;;;;26.50;47.40;99817.25;1763367;81;21173;-62
2021/05/29 14:11:58;;;;;;;3.12;2.47;;;;;;;26.40;47.48;99809.75;1763369;81;21177;-61
2021/05/29 14:15:06;;;;;;;5.67;2.58;;;;;;;26.41;47.11;99800.22;1759398;80;21240;-59
2021/05/29 14:18:12;;;;;;;5.30;2.72;;;;;;;26.38;46.96;99802.77;1763267;80;21362;-58
2021/05/29 14:21:19;;;;;;;5.42;2.40;;;;;;;26.35;46.50;99806.98;1763958;81;21359;-58
2021/05/29 14:24:25;;;;;;;4.08;2.67;;;;;;;26.32;46.46;99799.14;1763754;80;21374;-60
2021/05/29 14:27:32;;;;;;;3.30;2.27;;;;;;;26.28;46.87;99806.49;1763145;80;21445;-61
2021/05/29 14:30:39;;;;;;;2.70;2.05;;;;;;;26.25;46.30;99811.84;1763611;80;21366;-59
2021/05/29 14:33:46;;;;;;;5.05;2.35;;;;;;;26.11;46.45;99804.66;1763917;81;21338;-60
2021/05/29 14:36:52;;;;;;;6.12;2.55;;;;;;;26.05;46.76;99803.58;1763536;81;21350;-61
2021/05/29 14:39:58;;;;;;;3.92;2.45;;;;;;;25.99;46.91;99804.13;1763354;81;21876;-59
2021/05/29 14:43:04;;;;;;;8.15;2.58;;;;;;;25.94;47.26;99799.13;1763571;81;21200;-58
2021/05/29 14:46:10;;;;;;;5.30;2.40;;;;;;;25.91;47.27;99813.73;1763607;81;21228;-58
2021/05/29 14:49:18;;;;;;;7.12;2.67;;;;;;;25.81;47.05;99816.59;1764125;81;21172;-56